sensor_id;sensor_type;location;lat;lon;timestamp;P1;durP1;ratioP1;P2;durP2;ratioP2
38262;SDS011;24054;50.128;19.730;2022-09-17T00:01:24;8.77;;;3.97;;
38262;SDS011;24054;50.128;19.730;2022-09-17T00:03:53;5.90;;;4.15;;
38262;SDS011;24054;50.128;19.730;2022-09-17T00:06:21;5.60;;;4.05;;
38262;SDS011;24054;50.128;19.730;2022-09-17T00:08:48;5.25;;;4.35;;
38262;SDS011;24054;50.128;19.730;2022-09-17T00:11:18;5.20;;;3.85;;
38262;SDS011;24054;50.128;19.730;2022-09-17T00:13:47;5.63;;;4.28;;
38262;SDS011;24054;50.128;19.730;2022-09-17T00:16:20;6.00;;;4.18;;
38262;SDS011;24054;50.128;19.730;2022-09-17T00:18:51;5.93;;;4.47;;
38262;SDS011;24054;50.128;19.730;2022-09-17T00:21:18;5.25;;;3.95;;
38262;SDS011;24054;50.128;19.730;2022-09-17T00:23:46;5.53;;;4.13;;
38262;SDS011;24054;50.128;19.730;2022-09-17T00:26:13;6.30;;;4.00;;
38262;SDS011;24054;50.128;19.730;2022-09-17T00:28:42;5.50;;;4.18;;
38262;SDS011;24054;50.128;19.730;2022-09-17T00:31:12;5.28;;;3.80;;
38262;SDS011;24054;50.128;19.730;2022-09-17T00:33:39;8.75;;;3.88;;
38262;SDS011;24054;50.128;19.730;2022-09-17T00:36:06;6.63;;;4.38;;
38262;SDS011;24054;50.128;19.730;2022-09-17T00:38:33;6.18;;;3.75;;
38262;SDS011;24054;50.128;19.730;2022-09-17T00:41:01;5.03;;;4.13;;
38262;SDS011;24054;50.128;19.730;2022-09-17T00:46:09;5.05;;;3.83;;
38262;SDS011;24054;50.128;19.730;2022-09-17T00:48:44;4.53;;;3.65;;
38262;SDS011;24054;50.128;19.730;2022-09-17T00:51:12;5.65;;;4.13;;
38262;SDS011;24054;50.128;19.730;2022-09-17T00:53:43;5.90;;;4.18;;
38262;SDS011;24054;50.128;19.730;2022-09-17T00:56:12;4.30;;;3.63;;
38262;SDS011;24054;50.128;19.730;2022-09-17T00:58:44;4.78;;;3.90;;
38262;SDS011;24054;50.128;19.730;2022-09-17T01:01:13;4.53;;;3.63;;
38262;SDS011;24054;50.128;19.730;2022-09-17T01:03:40;4.35;;;3.50;;
38262;SDS011;24054;50.128;19.730;2022-09-17T01:06:09;5.90;;;4.10;;
38262;SDS011;24054;50.128;19.730;2022-09-17T01:08:45;4.13;;;3.50;;
38262;SDS011;24054;50.128;19.730;2022-09-17T01:11:27;5.53;;;3.88;;
38262;SDS011;24054;50.128;19.730;2022-09-17T01:14:09;5.20;;;3.92;;
38262;SDS011;24054;50.128;19.730;2022-09-17T01:16:54;4.90;;;3.80;;
38262;SDS011;24054;50.128;19.730;2022-09-17T01:19:44;4.18;;;3.50;;
38262;SDS011;24054;50.128;19.730;2022-09-17T01:22:38;7.13;;;4.28;;
38262;SDS011;24054;50.128;19.730;2022-09-17T01:25:20;4.60;;;3.80;;
38262;SDS011;24054;50.128;19.730;2022-09-17T01:30:57;4.25;;;3.72;;
38262;SDS011;24054;50.128;19.730;2022-09-17T01:33:41;4.95;;;3.55;;
38262;SDS011;24054;50.128;19.730;2022-09-17T01:36:19;5.18;;;3.50;;
38262;SDS011;24054;50.128;19.730;2022-09-17T01:38:59;5.20;;;4.13;;
38262;SDS011;24054;50.128;19.730;2022-09-17T01:41:35;3.95;;;3.45;;
38262;SDS011;24054;50.128;19.730;2022-09-17T01:44:09;5.95;;;3.55;;
38262;SDS011;24054;50.128;19.730;2022-09-17T01:46:42;4.88;;;3.58;;
38262;SDS011;24054;50.128;19.730;2022-09-17T01:49:13;5.38;;;4.03;;
38262;SDS011;24054;50.128;19.730;2022-09-17T01:51:42;4.18;;;3.58;;
38262;SDS011;24054;50.128;19.730;2022-09-17T01:54:11;6.50;;;3.80;;
38262;SDS011;24054;50.128;19.730;2022-09-17T01:56:44;6.00;;;3.83;;
38262;SDS011;24054;50.128;19.730;2022-09-17T01:59:17;4.93;;;3.45;;
38262;SDS011;24054;50.128;19.730;2022-09-17T02:01:50;4.80;;;3.40;;
38262;SDS011;24054;50.128;19.730;2022-09-17T02:04:22;6.18;;;3.60;;
38262;SDS011;24054;50.128;19.730;2022-09-17T02:06:55;4.65;;;3.72;;
38262;SDS011;24054;50.128;19.730;2022-09-17T02:09:29;4.68;;;4.00;;
38262;SDS011;24054;50.128;19.730;2022-09-17T02:12:01;4.68;;;3.75;;
38262;SDS011;24054;50.128;19.730;2022-09-17T02:14:35;6.20;;;3.72;;
38262;SDS011;24054;50.128;19.730;2022-09-17T02:17:08;4.60;;;3.40;;
38262;SDS011;24054;50.128;19.730;2022-09-17T02:19:41;4.10;;;3.50;;
38262;SDS011;24054;50.128;19.730;2022-09-17T02:22:13;5.10;;;3.47;;
38262;SDS011;24054;50.128;19.730;2022-09-17T02:24:47;5.72;;;3.63;;
38262;SDS011;24054;50.128;19.730;2022-09-17T02:27:21;3.67;;;3.15;;
38262;SDS011;24054;50.128;19.730;2022-09-17T02:29:56;3.92;;;3.13;;
38262;SDS011;24054;50.128;19.730;2022-09-17T02:32:25;7.28;;;3.85;;
38262;SDS011;24054;50.128;19.730;2022-09-17T02:34:52;4.85;;;3.55;;
38262;SDS011;24054;50.128;19.730;2022-09-17T02:37:19;4.40;;;3.47;;
38262;SDS011;24054;50.128;19.730;2022-09-17T02:39:46;4.10;;;3.70;;
38262;SDS011;24054;50.128;19.730;2022-09-17T02:42:15;4.75;;;3.67;;
38262;SDS011;24054;50.128;19.730;2022-09-17T02:44:49;4.95;;;3.83;;
38262;SDS011;24054;50.128;19.730;2022-09-17T02:47:35;4.80;;;3.28;;
38262;SDS011;24054;50.128;19.730;2022-09-17T02:50:14;5.70;;;4.30;;
38262;SDS011;24054;50.128;19.730;2022-09-17T02:52:53;3.60;;;3.15;;
38262;SDS011;24054;50.128;19.730;2022-09-17T02:55:30;4.95;;;3.40;;
38262;SDS011;24054;50.128;19.730;2022-09-17T02:58:04;5.07;;;3.10;;
38262;SDS011;24054;50.128;19.730;2022-09-17T03:00:40;3.75;;;3.20;;
38262;SDS011;24054;50.128;19.730;2022-09-17T03:03:12;4.30;;;3.10;;
38262;SDS011;24054;50.128;19.730;2022-09-17T03:05:45;5.93;;;3.40;;
38262;SDS011;24054;50.128;19.730;2022-09-17T03:08:13;3.67;;;3.00;;
38262;SDS011;24054;50.128;19.730;2022-09-17T03:10:42;6.35;;;3.13;;
38262;SDS011;24054;50.128;19.730;2022-09-17T03:13:09;6.20;;;3.05;;
38262;SDS011;24054;50.128;19.730;2022-09-17T03:15:36;3.95;;;2.90;;
38262;SDS011;24054;50.128;19.730;2022-09-17T03:18:03;3.33;;;2.90;;
38262;SDS011;24054;50.128;19.730;2022-09-17T03:20:32;5.20;;;3.33;;
38262;SDS011;24054;50.128;19.730;2022-09-17T03:22:59;4.53;;;3.33;;
38262;SDS011;24054;50.128;19.730;2022-09-17T03:25:26;4.72;;;3.30;;
38262;SDS011;24054;50.128;19.730;2022-09-17T03:27:53;4.05;;;3.10;;
38262;SDS011;24054;50.128;19.730;2022-09-17T03:30:20;3.53;;;2.95;;
38262;SDS011;24054;50.128;19.730;2022-09-17T03:32:47;6.30;;;3.53;;
38262;SDS011;24054;50.128;19.730;2022-09-17T03:35:14;3.90;;;3.25;;
38262;SDS011;24054;50.128;19.730;2022-09-17T03:37:43;3.42;;;2.85;;
38262;SDS011;24054;50.128;19.730;2022-09-17T03:40:11;6.93;;;3.42;;
38262;SDS011;24054;50.128;19.730;2022-09-17T03:42:38;5.25;;;2.90;;
38262;SDS011;24054;50.128;19.730;2022-09-17T03:45:06;4.35;;;3.38;;
38262;SDS011;24054;50.128;19.730;2022-09-17T03:47:33;5.13;;;3.17;;
38262;SDS011;24054;50.128;19.730;2022-09-17T03:50:00;4.40;;;2.97;;
38262;SDS011;24054;50.128;19.730;2022-09-17T03:52:27;3.63;;;2.92;;
38262;SDS011;24054;50.128;19.730;2022-09-17T03:54:55;5.72;;;3.05;;
38262;SDS011;24054;50.128;19.730;2022-09-17T03:59:49;5.38;;;2.80;;
38262;SDS011;24054;50.128;19.730;2022-09-17T04:02:16;5.85;;;3.47;;
38262;SDS011;24054;50.128;19.730;2022-09-17T04:04:43;3.97;;;2.80;;
38262;SDS011;24054;50.128;19.730;2022-09-17T04:07:10;4.75;;;2.97;;
38262;SDS011;24054;50.128;19.730;2022-09-17T04:09:37;4.95;;;3.20;;
38262;SDS011;24054;50.128;19.730;2022-09-17T04:12:06;3.92;;;2.83;;
38262;SDS011;24054;50.128;19.730;2022-09-17T04:14:33;4.40;;;3.17;;
38262;SDS011;24054;50.128;19.730;2022-09-17T04:17:00;3.67;;;2.72;;
38262;SDS011;24054;50.128;19.730;2022-09-17T04:19:27;4.78;;;3.30;;
38262;SDS011;24054;50.128;19.730;2022-09-17T04:21:54;3.83;;;2.78;;
38262;SDS011;24054;50.128;19.730;2022-09-17T04:24:21;3.30;;;2.70;;
38262;SDS011;24054;50.128;19.730;2022-09-17T04:26:48;3.50;;;2.83;;
38262;SDS011;24054;50.128;19.730;2022-09-17T04:29:18;3.85;;;2.80;;
38262;SDS011;24054;50.128;19.730;2022-09-17T04:31:45;4.88;;;3.03;;
38262;SDS011;24054;50.128;19.730;2022-09-17T04:34:12;3.95;;;3.03;;
38262;SDS011;24054;50.128;19.730;2022-09-17T04:36:39;3.42;;;2.83;;
38262;SDS011;24054;50.128;19.730;2022-09-17T04:39:07;3.13;;;2.65;;
38262;SDS011;24054;50.128;19.730;2022-09-17T04:41:34;5.03;;;2.93;;
38262;SDS011;24054;50.128;19.730;2022-09-17T04:44:01;2.95;;;2.33;;
38262;SDS011;24054;50.128;19.730;2022-09-17T04:46:29;2.97;;;2.55;;
38262;SDS011;24054;50.128;19.730;2022-09-17T04:48:56;2.92;;;2.47;;
38262;SDS011;24054;50.128;19.730;2022-09-17T04:51:23;4.57;;;3.22;;
38262;SDS011;24054;50.128;19.730;2022-09-17T04:53:50;5.13;;;2.40;;
38262;SDS011;24054;50.128;19.730;2022-09-17T04:56:17;4.05;;;3.13;;
38262;SDS011;24054;50.128;19.730;2022-09-17T04:58:44;3.97;;;3.00;;
38262;SDS011;24054;50.128;19.730;2022-09-17T05:01:11;4.40;;;2.72;;
38262;SDS011;24054;50.128;19.730;2022-09-17T05:03:40;26.70;;;7.80;;
38262;SDS011;24054;50.128;19.730;2022-09-17T05:06:07;60.28;;;15.02;;
38262;SDS011;24054;50.128;19.730;2022-09-17T05:08:34;65.78;;;16.02;;
38262;SDS011;24054;50.128;19.730;2022-09-17T05:11:01;71.13;;;19.98;;
38262;SDS011;24054;50.128;19.730;2022-09-17T05:13:29;71.50;;;17.88;;
38262;SDS011;24054;50.128;19.730;2022-09-17T05:15:56;67.30;;;18.45;;
38262;SDS011;24054;50.128;19.730;2022-09-17T05:18:23;69.95;;;18.80;;
38262;SDS011;24054;50.128;19.730;2022-09-17T05:20:53;71.53;;;18.23;;
38262;SDS011;24054;50.128;19.730;2022-09-17T05:23:20;67.18;;;17.05;;
38262;SDS011;24054;50.128;19.730;2022-09-17T05:25:47;70.28;;;17.10;;
38262;SDS011;24054;50.128;19.730;2022-09-17T05:28:14;60.47;;;16.27;;
38262;SDS011;24054;50.128;19.730;2022-09-17T05:30:41;63.42;;;16.75;;
38262;SDS011;24054;50.128;19.730;2022-09-17T05:33:08;66.68;;;16.45;;
38262;SDS011;24054;50.128;19.730;2022-09-17T05:35:38;59.08;;;15.15;;
38262;SDS011;24054;50.128;19.730;2022-09-17T05:38:06;52.80;;;14.50;;
38262;SDS011;24054;50.128;19.730;2022-09-17T05:40:33;62.75;;;18.98;;
38262;SDS011;24054;50.128;19.730;2022-09-17T05:43:02;116.13;;;34.80;;
38262;SDS011;24054;50.128;19.730;2022-09-17T05:45:31;121.93;;;37.00;;
38262;SDS011;24054;50.128;19.730;2022-09-17T05:47:59;114.78;;;37.95;;
38262;SDS011;24054;50.128;19.730;2022-09-17T05:50:27;135.90;;;41.78;;
38262;SDS011;24054;50.128;19.730;2022-09-17T05:52:55;141.15;;;43.55;;
38262;SDS011;24054;50.128;19.730;2022-09-17T05:55:24;138.65;;;44.05;;
38262;SDS011;24054;50.128;19.730;2022-09-17T05:57:51;125.55;;;42.10;;
38262;SDS011;24054;50.128;19.730;2022-09-17T06:00:18;118.90;;;40.22;;
38262;SDS011;24054;50.128;19.730;2022-09-17T06:02:45;132.60;;;41.55;;
38262;SDS011;24054;50.128;19.730;2022-09-17T06:05:19;122.50;;;40.30;;
38262;SDS011;24054;50.128;19.730;2022-09-17T06:07:45;129.43;;;41.30;;
38262;SDS011;24054;50.128;19.730;2022-09-17T06:10:12;123.35;;;41.97;;
38262;SDS011;24054;50.128;19.730;2022-09-17T06:12:41;116.28;;;39.15;;
38262;SDS011;24054;50.128;19.730;2022-09-17T06:15:08;122.20;;;39.65;;
38262;SDS011;24054;50.128;19.730;2022-09-17T06:17:39;114.78;;;40.45;;
38262;SDS011;24054;50.128;19.730;2022-09-17T06:20:07;137.88;;;44.30;;
38262;SDS011;24054;50.128;19.730;2022-09-17T06:22:35;116.43;;;39.83;;
38262;SDS011;24054;50.128;19.730;2022-09-17T06:25:02;138.15;;;44.00;;
38262;SDS011;24054;50.128;19.730;2022-09-17T06:27:30;139.77;;;44.85;;
38262;SDS011;24054;50.128;19.730;2022-09-17T06:29:59;142.40;;;43.05;;
38262;SDS011;24054;50.128;19.730;2022-09-17T06:34:53;105.60;;;36.78;;
38262;SDS011;24054;50.128;19.730;2022-09-17T06:37:25;116.70;;;38.40;;
38262;SDS011;24054;50.128;19.730;2022-09-17T06:39:53;115.78;;;39.55;;
38262;SDS011;24054;50.128;19.730;2022-09-17T06:42:20;88.97;;;33.22;;
38262;SDS011;24054;50.128;19.730;2022-09-17T06:44:47;108.18;;;37.38;;
38262;SDS011;24054;50.128;19.730;2022-09-17T06:47:15;103.60;;;36.33;;
38262;SDS011;24054;50.128;19.730;2022-09-17T06:49:43;107.25;;;34.55;;
38262;SDS011;24054;50.128;19.730;2022-09-17T06:52:13;119.18;;;37.20;;
38262;SDS011;24054;50.128;19.730;2022-09-17T06:54:40;96.60;;;34.60;;
38262;SDS011;24054;50.128;19.730;2022-09-17T06:57:07;101.30;;;33.45;;
38262;SDS011;24054;50.128;19.730;2022-09-17T06:59:34;95.20;;;33.58;;
38262;SDS011;24054;50.128;19.730;2022-09-17T07:02:01;101.32;;;33.15;;
38262;SDS011;24054;50.128;19.730;2022-09-17T07:04:31;93.10;;;33.65;;
38262;SDS011;24054;50.128;19.730;2022-09-17T07:06:57;85.75;;;31.90;;
38262;SDS011;24054;50.128;19.730;2022-09-17T07:09:25;94.20;;;31.10;;
38262;SDS011;24054;50.128;19.730;2022-09-17T07:11:52;87.40;;;31.17;;
38262;SDS011;24054;50.128;19.730;2022-09-17T07:14:19;104.82;;;34.20;;
38262;SDS011;24054;50.128;19.730;2022-09-17T07:16:46;85.35;;;31.42;;
38262;SDS011;24054;50.128;19.730;2022-09-17T07:19:13;88.32;;;31.98;;
38262;SDS011;24054;50.128;19.730;2022-09-17T07:21:41;81.13;;;30.25;;
38262;SDS011;24054;50.128;19.730;2022-09-17T07:24:08;84.72;;;30.17;;
38262;SDS011;24054;50.128;19.730;2022-09-17T07:26:35;79.22;;;28.80;;
38262;SDS011;24054;50.128;19.730;2022-09-17T07:29:02;81.07;;;28.83;;
38262;SDS011;24054;50.128;19.730;2022-09-17T07:31:29;83.50;;;30.23;;
38262;SDS011;24054;50.128;19.730;2022-09-17T07:33:57;60.90;;;24.83;;
38262;SDS011;24054;50.128;19.730;2022-09-17T07:36:25;65.40;;;25.90;;
38262;SDS011;24054;50.128;19.730;2022-09-17T07:38:54;74.82;;;26.70;;
38262;SDS011;24054;50.128;19.730;2022-09-17T07:41:22;74.43;;;27.38;;
38262;SDS011;24054;50.128;19.730;2022-09-17T07:43:51;73.20;;;25.55;;
38262;SDS011;24054;50.128;19.730;2022-09-17T07:46:19;64.63;;;25.17;;
38262;SDS011;24054;50.128;19.730;2022-09-17T07:48:47;55.15;;;22.70;;
38262;SDS011;24054;50.128;19.730;2022-09-17T07:51:15;57.13;;;21.95;;
38262;SDS011;24054;50.128;19.730;2022-09-17T07:53:42;56.97;;;21.57;;
38262;SDS011;24054;50.128;19.730;2022-09-17T07:56:12;57.42;;;22.15;;
38262;SDS011;24054;50.128;19.730;2022-09-17T07:58:39;52.55;;;20.80;;
38262;SDS011;24054;50.128;19.730;2022-09-17T08:01:06;48.88;;;17.80;;
38262;SDS011;24054;50.128;19.730;2022-09-17T08:03:35;38.90;;;16.85;;
38262;SDS011;24054;50.128;19.730;2022-09-17T08:06:04;45.53;;;17.35;;
38262;SDS011;24054;50.128;19.730;2022-09-17T08:08:32;40.22;;;16.80;;
38262;SDS011;24054;50.128;19.730;2022-09-17T08:11:01;39.53;;;16.40;;
38262;SDS011;24054;50.128;19.730;2022-09-17T08:13:30;43.72;;;16.80;;
38262;SDS011;24054;50.128;19.730;2022-09-17T08:15:58;35.67;;;16.38;;
38262;SDS011;24054;50.128;19.730;2022-09-17T08:18:25;38.03;;;15.52;;
38262;SDS011;24054;50.128;19.730;2022-09-17T08:20:55;33.95;;;15.02;;
38262;SDS011;24054;50.128;19.730;2022-09-17T08:23:23;34.78;;;14.60;;
38262;SDS011;24054;50.128;19.730;2022-09-17T08:25:51;27.67;;;12.32;;
38262;SDS011;24054;50.128;19.730;2022-09-17T08:28:19;28.77;;;12.70;;
38262;SDS011;24054;50.128;19.730;2022-09-17T08:30:48;27.20;;;13.07;;
38262;SDS011;24054;50.128;19.730;2022-09-17T08:33:15;25.45;;;12.05;;
38262;SDS011;24054;50.128;19.730;2022-09-17T08:35:49;29.95;;;11.45;;
38262;SDS011;24054;50.128;19.730;2022-09-17T08:38:17;28.70;;;12.65;;
38262;SDS011;24054;50.128;19.730;2022-09-17T08:40:49;27.90;;;11.93;;
38262;SDS011;24054;50.128;19.730;2022-09-17T08:43:26;22.65;;;9.60;;
38262;SDS011;24054;50.128;19.730;2022-09-17T08:45:55;21.05;;;10.23;;
38262;SDS011;24054;50.128;19.730;2022-09-17T08:48:24;18.38;;;8.77;;
38262;SDS011;24054;50.128;19.730;2022-09-17T08:50:53;21.30;;;9.07;;
38262;SDS011;24054;50.128;19.730;2022-09-17T08:53:25;18.20;;;7.95;;
38262;SDS011;24054;50.128;19.730;2022-09-17T08:56:04;18.73;;;8.05;;
38262;SDS011;24054;50.128;19.730;2022-09-17T08:58:40;15.85;;;7.53;;
38262;SDS011;24054;50.128;19.730;2022-09-17T09:01:26;18.58;;;7.57;;
38262;SDS011;24054;50.128;19.730;2022-09-17T09:04:05;16.92;;;7.63;;
38262;SDS011;24054;50.128;19.730;2022-09-17T09:06:48;19.77;;;7.82;;
38262;SDS011;24054;50.128;19.730;2022-09-17T09:09:19;14.68;;;6.85;;
38262;SDS011;24054;50.128;19.730;2022-09-17T09:11:52;17.60;;;7.15;;
38262;SDS011;24054;50.128;19.730;2022-09-17T09:14:27;17.30;;;6.85;;
38262;SDS011;24054;50.128;19.730;2022-09-17T09:17:04;16.67;;;6.75;;
38262;SDS011;24054;50.128;19.730;2022-09-17T09:19:38;18.60;;;6.60;;
38262;SDS011;24054;50.128;19.730;2022-09-17T09:22:13;13.43;;;5.80;;
38262;SDS011;24054;50.128;19.730;2022-09-17T09:24:54;13.48;;;6.13;;
38262;SDS011;24054;50.128;19.730;2022-09-17T09:27:32;17.15;;;5.75;;
38262;SDS011;24054;50.128;19.730;2022-09-17T09:30:07;13.35;;;5.90;;
38262;SDS011;24054;50.128;19.730;2022-09-17T09:32:42;13.50;;;5.70;;
38262;SDS011;24054;50.128;19.730;2022-09-17T09:35:18;15.48;;;6.45;;
38262;SDS011;24054;50.128;19.730;2022-09-17T09:37:50;14.25;;;6.10;;
38262;SDS011;24054;50.128;19.730;2022-09-17T09:40:29;20.35;;;6.47;;
38262;SDS011;24054;50.128;19.730;2022-09-17T09:43:02;16.13;;;5.28;;
38262;SDS011;24054;50.128;19.730;2022-09-17T09:45:44;15.07;;;5.40;;
38262;SDS011;24054;50.128;19.730;2022-09-17T09:48:22;12.93;;;5.32;;
38262;SDS011;24054;50.128;19.730;2022-09-17T09:51:04;18.08;;;5.88;;
38262;SDS011;24054;50.128;19.730;2022-09-17T09:53:42;10.48;;;5.70;;
38262;SDS011;24054;50.128;19.730;2022-09-17T09:59:05;12.13;;;5.07;;
38262;SDS011;24054;50.128;19.730;2022-09-17T10:01:35;15.18;;;5.07;;
38262;SDS011;24054;50.128;19.730;2022-09-17T10:04:14;10.63;;;4.25;;
38262;SDS011;24054;50.128;19.730;2022-09-17T10:06:44;7.00;;;3.85;;
38262;SDS011;24054;50.128;19.730;2022-09-17T10:09:13;12.15;;;3.80;;
38262;SDS011;24054;50.128;19.730;2022-09-17T10:11:42;9.25;;;3.30;;
38262;SDS011;24054;50.128;19.730;2022-09-17T10:14:29;9.32;;;2.88;;
38262;SDS011;24054;50.128;19.730;2022-09-17T10:17:12;6.40;;;2.97;;
38262;SDS011;24054;50.128;19.730;2022-09-17T10:20:11;8.80;;;3.53;;
38262;SDS011;24054;50.128;19.730;2022-09-17T10:22:41;10.18;;;3.33;;
38262;SDS011;24054;50.128;19.730;2022-09-17T10:25:28;11.93;;;3.55;;
38262;SDS011;24054;50.128;19.730;2022-09-17T10:27:57;7.32;;;3.30;;
38262;SDS011;24054;50.128;19.730;2022-09-17T10:30:26;9.55;;;3.67;;
38262;SDS011;24054;50.128;19.730;2022-09-17T10:33:11;11.80;;;3.77;;
38262;SDS011;24054;50.128;19.730;2022-09-17T10:35:54;9.25;;;3.58;;
38262;SDS011;24054;50.128;19.730;2022-09-17T10:38:28;9.10;;;3.60;;
38262;SDS011;24054;50.128;19.730;2022-09-17T10:41:10;16.45;;;3.47;;
38262;SDS011;24054;50.128;19.730;2022-09-17T10:43:39;9.35;;;3.60;;
38262;SDS011;24054;50.128;19.730;2022-09-17T10:46:07;8.10;;;3.20;;
38262;SDS011;24054;50.128;19.730;2022-09-17T10:48:38;6.50;;;2.95;;
38262;SDS011;24054;50.128;19.730;2022-09-17T10:51:10;8.57;;;3.17;;
38262;SDS011;24054;50.128;19.730;2022-09-17T10:53:58;7.90;;;3.10;;
38262;SDS011;24054;50.128;19.730;2022-09-17T10:56:43;15.15;;;3.45;;
38262;SDS011;24054;50.128;19.730;2022-09-17T11:02:21;10.02;;;3.15;;
38262;SDS011;24054;50.128;19.730;2022-09-17T11:05:06;10.90;;;3.85;;
38262;SDS011;24054;50.128;19.730;2022-09-17T11:07:55;8.02;;;3.20;;
38262;SDS011;24054;50.128;19.730;2022-09-17T11:10:27;7.05;;;3.00;;
38262;SDS011;24054;50.128;19.730;2022-09-17T11:13:06;13.65;;;3.17;;
38262;SDS011;24054;50.128;19.730;2022-09-17T11:15:47;11.68;;;3.05;;
38262;SDS011;24054;50.128;19.730;2022-09-17T11:18:31;9.85;;;3.03;;
38262;SDS011;24054;50.128;19.730;2022-09-17T11:21:07;6.35;;;2.85;;
38262;SDS011;24054;50.128;19.730;2022-09-17T11:23:55;12.75;;;4.05;;
38262;SDS011;24054;50.128;19.730;2022-09-17T11:26:40;5.53;;;2.88;;
38262;SDS011;24054;50.128;19.730;2022-09-17T11:29:28;9.20;;;3.33;;
38262;SDS011;24054;50.128;19.730;2022-09-17T11:32:24;10.38;;;3.42;;
38262;SDS011;24054;50.128;19.730;2022-09-17T11:35:06;9.63;;;3.08;;
38262;SDS011;24054;50.128;19.730;2022-09-17T11:37:36;6.95;;;2.78;;
38262;SDS011;24054;50.128;19.730;2022-09-17T11:40:11;8.77;;;3.58;;
38262;SDS011;24054;50.128;19.730;2022-09-17T11:42:41;7.85;;;3.15;;
38262;SDS011;24054;50.128;19.730;2022-09-17T11:45:12;4.35;;;2.58;;
38262;SDS011;24054;50.128;19.730;2022-09-17T11:47:43;8.55;;;3.40;;
38262;SDS011;24054;50.128;19.730;2022-09-17T11:50:16;9.98;;;3.30;;
38262;SDS011;24054;50.128;19.730;2022-09-17T11:52:53;10.30;;;2.95;;
38262;SDS011;24054;50.128;19.730;2022-09-17T11:55:31;7.72;;;3.17;;
38262;SDS011;24054;50.128;19.730;2022-09-17T11:58:09;10.35;;;3.15;;
38262;SDS011;24054;50.128;19.730;2022-09-17T12:00:41;9.18;;;3.28;;
38262;SDS011;24054;50.128;19.730;2022-09-17T12:03:16;13.20;;;3.38;;
38262;SDS011;24054;50.128;19.730;2022-09-17T12:05:49;10.77;;;3.20;;
38262;SDS011;24054;50.128;19.730;2022-09-17T12:08:20;9.90;;;3.10;;
38262;SDS011;24054;50.128;19.730;2022-09-17T12:10:53;13.07;;;3.08;;
38262;SDS011;24054;50.128;19.730;2022-09-17T12:13:29;10.60;;;3.33;;
38262;SDS011;24054;50.128;19.730;2022-09-17T12:16:09;9.80;;;3.65;;
38262;SDS011;24054;50.128;19.730;2022-09-17T12:18:45;9.57;;;3.70;;
38262;SDS011;24054;50.128;19.730;2022-09-17T12:21:20;9.07;;;3.28;;
38262;SDS011;24054;50.128;19.730;2022-09-17T12:23:53;9.95;;;3.22;;
38262;SDS011;24054;50.128;19.730;2022-09-17T12:26:28;12.15;;;3.53;;
38262;SDS011;24054;50.128;19.730;2022-09-17T12:29:07;8.80;;;3.47;;
38262;SDS011;24054;50.128;19.730;2022-09-17T12:31:46;5.60;;;3.33;;
38262;SDS011;24054;50.128;19.730;2022-09-17T12:34:25;9.63;;;3.50;;
38262;SDS011;24054;50.128;19.730;2022-09-17T12:37:03;10.30;;;3.15;;
38262;SDS011;24054;50.128;19.730;2022-09-17T12:39:42;7.65;;;2.95;;
38262;SDS011;24054;50.128;19.730;2022-09-17T12:42:40;8.38;;;3.75;;
38262;SDS011;24054;50.128;19.730;2022-09-17T12:45:19;10.80;;;3.53;;
38262;SDS011;24054;50.128;19.730;2022-09-17T12:48:00;9.38;;;3.92;;
38262;SDS011;24054;50.128;19.730;2022-09-17T12:50:43;6.28;;;3.40;;
38262;SDS011;24054;50.128;19.730;2022-09-17T12:53:21;10.93;;;3.30;;
38262;SDS011;24054;50.128;19.730;2022-09-17T12:55:57;9.20;;;3.30;;
38262;SDS011;24054;50.128;19.730;2022-09-17T12:58:52;8.68;;;3.03;;
38262;SDS011;24054;50.128;19.730;2022-09-17T13:01:29;11.30;;;3.45;;
38262;SDS011;24054;50.128;19.730;2022-09-17T13:04:09;9.63;;;2.97;;
38262;SDS011;24054;50.128;19.730;2022-09-17T13:07:02;14.30;;;3.90;;
38262;SDS011;24054;50.128;19.730;2022-09-17T13:10:01;7.65;;;3.10;;
38262;SDS011;24054;50.128;19.730;2022-09-17T13:12:36;8.95;;;2.97;;
38262;SDS011;24054;50.128;19.730;2022-09-17T13:15:29;14.00;;;3.75;;
38262;SDS011;24054;50.128;19.730;2022-09-17T13:18:06;10.75;;;3.13;;
38262;SDS011;24054;50.128;19.730;2022-09-17T13:20:40;7.78;;;2.88;;
38262;SDS011;24054;50.128;19.730;2022-09-17T13:25:54;6.80;;;2.97;;
38262;SDS011;24054;50.128;19.730;2022-09-17T13:28:22;7.68;;;3.35;;
38262;SDS011;24054;50.128;19.730;2022-09-17T13:31:04;6.88;;;3.05;;
38262;SDS011;24054;50.128;19.730;2022-09-17T13:33:49;11.27;;;3.55;;
38262;SDS011;24054;50.128;19.730;2022-09-17T13:39:06;8.23;;;3.60;;
38262;SDS011;24054;50.128;19.730;2022-09-17T13:41:35;7.30;;;3.13;;
38262;SDS011;24054;50.128;19.730;2022-09-17T13:44:04;6.70;;;2.67;;
38262;SDS011;24054;50.128;19.730;2022-09-17T13:46:34;7.95;;;3.20;;
38262;SDS011;24054;50.128;19.730;2022-09-17T13:49:03;7.60;;;2.92;;
38262;SDS011;24054;50.128;19.730;2022-09-17T13:51:41;7.45;;;3.13;;
38262;SDS011;24054;50.128;19.730;2022-09-17T13:54:17;9.73;;;2.90;;
38262;SDS011;24054;50.128;19.730;2022-09-17T13:56:49;5.97;;;3.25;;
38262;SDS011;24054;50.128;19.730;2022-09-17T13:59:39;8.00;;;2.88;;
38262;SDS011;24054;50.128;19.730;2022-09-17T14:02:33;6.40;;;2.63;;
38262;SDS011;24054;50.128;19.730;2022-09-17T14:08:11;5.88;;;3.05;;
38262;SDS011;24054;50.128;19.730;2022-09-17T14:10:54;8.73;;;2.92;;
38262;SDS011;24054;50.128;19.730;2022-09-17T14:18:37;9.13;;;2.80;;
38262;SDS011;24054;50.128;19.730;2022-09-17T14:21:13;7.10;;;2.60;;
38262;SDS011;24054;50.128;19.730;2022-09-17T14:23:53;7.18;;;3.05;;
38262;SDS011;24054;50.128;19.730;2022-09-17T14:26:39;9.63;;;3.28;;
38262;SDS011;24054;50.128;19.730;2022-09-17T14:32:27;15.38;;;3.30;;
38262;SDS011;24054;50.128;19.730;2022-09-17T14:34:59;5.40;;;2.70;;
38262;SDS011;24054;50.128;19.730;2022-09-17T14:37:27;8.02;;;2.78;;
38262;SDS011;24054;50.128;19.730;2022-09-17T14:39:55;7.27;;;2.73;;
38262;SDS011;24054;50.128;19.730;2022-09-17T14:42:23;6.00;;;2.70;;
38262;SDS011;24054;50.128;19.730;2022-09-17T14:44:56;8.27;;;2.85;;
38262;SDS011;24054;50.128;19.730;2022-09-17T14:47:25;6.93;;;2.55;;
38262;SDS011;24054;50.128;19.730;2022-09-17T14:49:52;5.18;;;2.38;;
38262;SDS011;24054;50.128;19.730;2022-09-17T14:52:25;5.97;;;2.53;;
38262;SDS011;24054;50.128;19.730;2022-09-17T14:57:44;8.82;;;2.90;;
38262;SDS011;24054;50.128;19.730;2022-09-17T15:00:16;6.53;;;2.47;;
38262;SDS011;24054;50.128;19.730;2022-09-17T15:02:49;8.60;;;2.55;;
38262;SDS011;24054;50.128;19.730;2022-09-17T15:05:23;4.25;;;2.30;;
38262;SDS011;24054;50.128;19.730;2022-09-17T15:08:04;5.20;;;2.45;;
38262;SDS011;24054;50.128;19.730;2022-09-17T15:10:34;5.43;;;3.00;;
38262;SDS011;24054;50.128;19.730;2022-09-17T15:13:04;6.43;;;2.78;;
38262;SDS011;24054;50.128;19.730;2022-09-17T15:15:39;4.18;;;2.55;;
38262;SDS011;24054;50.128;19.730;2022-09-17T15:18:15;6.35;;;2.75;;
38262;SDS011;24054;50.128;19.730;2022-09-17T15:20:43;5.47;;;2.55;;
38262;SDS011;24054;50.128;19.730;2022-09-17T15:23:15;5.50;;;2.45;;
38262;SDS011;24054;50.128;19.730;2022-09-17T15:25:46;5.40;;;2.60;;
38262;SDS011;24054;50.128;19.730;2022-09-17T15:28:19;9.10;;;2.50;;
38262;SDS011;24054;50.128;19.730;2022-09-17T15:30:53;4.55;;;2.53;;
38262;SDS011;24054;50.128;19.730;2022-09-17T15:33:21;8.52;;;2.60;;